createdAt,value
2022-11-16T00:02:18.481Z,99.90
2022-11-16T00:04:47.802Z,99.90
2022-11-16T00:07:17.147Z,99.90
2022-11-16T00:09:46.529Z,99.90
2022-11-16T00:12:15.755Z,99.90
2022-11-16T00:14:45.036Z,99.90
2022-11-16T00:17:14.303Z,99.90
2022-11-16T00:19:43.554Z,99.90
2022-11-16T00:22:12.810Z,99.90
2022-11-16T00:24:42.350Z,99.90
2022-11-16T00:27:11.550Z,99.90
2022-11-16T00:29:40.808Z,99.90
2022-11-16T00:32:10.068Z,99.90
2022-11-16T00:34:39.379Z,99.90
2022-11-16T00:37:08.712Z,99.90
2022-11-16T00:39:37.906Z,99.90
2022-11-16T00:42:07.145Z,99.90
2022-11-16T00:44:36.407Z,99.90
2022-11-16T00:47:05.690Z,99.90
2022-11-16T00:49:35.024Z,99.90
2022-11-16T00:52:04.257Z,99.90
2022-11-16T00:54:33.606Z,99.90
2022-11-16T00:57:03.033Z,99.90
2022-11-16T00:59:32.343Z,99.90
2022-11-16T01:02:01.620Z,99.90
2022-11-16T01:04:30.855Z,99.90
2022-11-16T01:07:00.148Z,99.90
2022-11-16T01:09:29.649Z,99.90
2022-11-16T01:12:14.296Z,99.90
2022-11-16T01:14:46.623Z,99.90
2022-11-16T01:17:16.551Z,99.90
2022-11-16T01:19:45.911Z,99.90
2022-11-16T01:22:15.373Z,99.90
2022-11-16T01:24:44.808Z,99.90
2022-11-16T01:27:14.308Z,99.90
2022-11-16T01:29:50.848Z,99.90
2022-11-16T01:32:20.192Z,99.90
2022-11-16T01:34:49.506Z,99.90
2022-11-16T01:37:21.270Z,99.90
2022-11-16T01:39:52.117Z,99.90
2022-11-16T01:42:28.209Z,99.90
2022-11-16T01:45:01.894Z,99.90
2022-11-16T01:47:31.389Z,99.90
2022-11-16T01:50:07.954Z,99.90
2022-11-16T01:52:41.055Z,99.90
2022-11-16T01:55:11.376Z,99.90
2022-11-16T01:57:44.246Z,99.90
2022-11-16T02:00:14.782Z,99.90
2022-11-16T02:02:45.197Z,99.90
2022-11-16T02:05:18.737Z,99.90
2022-11-16T02:08:16.531Z,99.90
2022-11-16T02:10:57.817Z,99.90
2022-11-16T02:13:36.775Z,99.90
2022-11-16T02:16:27.555Z,99.90
2022-11-16T02:19:19.141Z,99.90
2022-11-16T02:22:00.739Z,99.90
2022-11-16T02:24:31.918Z,99.90
2022-11-16T02:27:14.632Z,99.90
2022-11-16T02:29:55.048Z,99.90
2022-11-16T02:32:29.728Z,99.90
2022-11-16T02:35:04.799Z,99.90
2022-11-16T02:37:38.780Z,99.90
2022-11-16T02:40:12.845Z,99.90
2022-11-16T02:42:47.900Z,99.90
2022-11-16T02:45:26.345Z,99.90
2022-11-16T02:47:59.270Z,99.90
2022-11-16T02:50:30.695Z,99.90
2022-11-16T02:53:00.099Z,99.90
2022-11-16T02:55:32.122Z,99.90
2022-11-16T02:58:03.351Z,99.90
2022-11-16T03:00:38.998Z,99.90
2022-11-16T03:03:29.377Z,99.90
2022-11-16T03:06:13.010Z,99.90
2022-11-16T03:08:51.376Z,99.90
2022-11-16T03:11:40.369Z,99.90
2022-11-16T03:14:15.161Z,99.90
2022-11-16T03:16:50.486Z,99.90
2022-11-16T03:19:26.945Z,99.90
2022-11-16T03:22:00.343Z,99.90
2022-11-16T03:24:29.870Z,99.90
2022-11-16T03:27:12.665Z,99.90
2022-11-16T03:29:57.072Z,99.90
2022-11-16T03:32:34.835Z,99.90
2022-11-16T03:35:17.643Z,99.90
2022-11-16T03:37:49.262Z,99.90
2022-11-16T03:40:20.192Z,99.90
2022-11-16T03:42:51.421Z,99.90
2022-11-16T03:45:21.792Z,99.90
2022-11-16T03:47:51.111Z,99.90
2022-11-16T03:50:20.349Z,99.90
2022-11-16T03:52:49.709Z,99.90
2022-11-16T03:55:18.985Z,99.90
2022-11-16T03:57:48.196Z,99.90
2022-11-16T04:00:17.907Z,99.90
2022-11-16T04:02:47.248Z,99.90
2022-11-16T04:05:36.385Z,99.90
2022-11-16T04:08:25.242Z,99.90
2022-11-16T04:11:14.143Z,99.90
2022-11-16T04:14:08.941Z,99.90
2022-11-16T04:16:58.321Z,99.90
2022-11-16T04:19:47.133Z,99.90
2022-11-16T04:22:44.768Z,99.90
2022-11-16T04:25:20.413Z,99.90
2022-11-16T04:28:09.637Z,99.90
2022-11-16T04:30:58.641Z,99.90
2022-11-16T04:33:47.946Z,99.90
2022-11-16T04:36:37.181Z,99.90
2022-11-16T04:39:06.634Z,99.90
2022-11-16T04:41:55.982Z,99.90
2022-11-16T04:44:29.904Z,99.90
2022-11-16T04:47:15.869Z,99.90
2022-11-16T04:49:45.176Z,99.90
2022-11-16T04:52:14.546Z,99.90
2022-11-16T04:54:43.805Z,99.90
2022-11-16T04:57:13.153Z,99.90
2022-11-16T04:59:42.466Z,99.90
2022-11-16T05:02:16.953Z,99.90
2022-11-16T05:04:47.857Z,99.90
2022-11-16T05:07:19.077Z,99.90
2022-11-16T05:09:50.674Z,99.90
2022-11-16T05:12:23.580Z,99.90
2022-11-16T05:14:52.939Z,99.90
2022-11-16T05:17:22.548Z,99.90
2022-11-16T05:20:11.573Z,99.90
2022-11-16T05:22:41.391Z,99.90
2022-11-16T05:25:12.776Z,99.90
2022-11-16T05:27:42.768Z,99.90
2022-11-16T05:30:13.005Z,99.90
2022-11-16T05:32:42.926Z,99.90
2022-11-16T05:35:15.950Z,99.90
2022-11-16T05:37:47.899Z,99.90
2022-11-16T05:40:18.192Z,99.90
2022-11-16T05:42:48.173Z,99.90
2022-11-16T05:45:20.989Z,99.90
2022-11-16T05:47:57.205Z,99.90
2022-11-16T05:50:27.015Z,99.90
2022-11-16T05:52:57.051Z,99.90
2022-11-16T05:55:28.151Z,99.90
2022-11-16T05:57:58.230Z,99.90
2022-11-16T06:00:31.313Z,99.90
2022-11-16T06:03:04.610Z,99.90
2022-11-16T06:05:40.762Z,99.90
2022-11-16T06:08:14.290Z,99.90
2022-11-16T06:10:44.257Z,99.90
2022-11-16T06:13:17.339Z,99.90
2022-11-16T06:15:55.908Z,99.90
2022-11-16T06:18:26.232Z,99.90
2022-11-16T06:20:59.085Z,99.90
2022-11-16T06:23:28.995Z,99.90
2022-11-16T06:26:01.830Z,99.90
2022-11-16T06:28:31.529Z,99.90
2022-11-16T06:31:02.541Z,99.90
2022-11-16T06:33:34.210Z,99.90
2022-11-16T06:36:03.979Z,99.90
2022-11-16T06:38:35.458Z,99.90
2022-11-16T06:41:07.109Z,99.90
2022-11-16T06:43:36.730Z,99.90
2022-11-16T06:46:07.166Z,99.90
2022-11-16T06:48:37.099Z,99.90
2022-11-16T06:51:07.332Z,99.90
2022-11-16T06:53:37.903Z,99.90
2022-11-16T06:56:09.267Z,99.90
2022-11-16T06:58:42.639Z,99.90
2022-11-16T07:01:14.738Z,99.90
2022-11-16T07:03:45.216Z,99.40
2022-11-16T07:06:18.878Z,99.90
2022-11-16T07:08:48.415Z,99.70
2022-11-16T07:11:17.664Z,99.50
2022-11-16T07:13:47.533Z,99.50
2022-11-16T07:16:17.995Z,99.50
2022-11-16T07:18:49.059Z,99.20
2022-11-16T07:21:23.612Z,99.80
2022-11-16T07:23:53.958Z,99.90
2022-11-16T07:26:24.046Z,99.90
2022-11-16T07:28:54.027Z,99.90
2022-11-16T07:31:27.168Z,99.30
2022-11-16T07:33:57.028Z,99.90
2022-11-16T07:36:26.642Z,99.20
2022-11-16T07:38:56.308Z,99.80
2022-11-16T07:41:37.330Z,99.30
2022-11-16T07:44:11.778Z,98.00
2022-11-16T07:46:47.204Z,99.80
2022-11-16T07:49:20.410Z,99.00
2022-11-16T07:51:50.559Z,99.40
2022-11-16T07:54:21.748Z,99.20
2022-11-16T07:56:55.308Z,98.30
2022-11-16T07:59:25.120Z,99.70
2022-11-16T08:01:57.292Z,99.80
2022-11-16T08:04:29.849Z,99.90
2022-11-16T08:06:59.192Z,98.20
2022-11-16T08:09:29.043Z,98.70
2022-11-16T08:11:58.284Z,99.00
2022-11-16T08:14:27.677Z,99.20
2022-11-16T08:16:56.979Z,99.00
2022-11-16T08:19:26.201Z,99.10
2022-11-16T08:21:55.429Z,99.10
2022-11-16T08:24:24.863Z,98.90
2022-11-16T08:26:55.603Z,99.20
2022-11-16T08:29:24.934Z,98.80
2022-11-16T08:31:54.340Z,98.60
2022-11-16T08:34:23.652Z,98.40
2022-11-16T08:36:53.026Z,97.80
2022-11-16T08:39:22.313Z,97.30
2022-11-16T08:41:52.944Z,96.70
2022-11-16T08:44:22.129Z,96.90
2022-11-16T08:46:51.552Z,97.10
2022-11-16T08:49:20.911Z,98.00
2022-11-16T08:51:50.100Z,97.30
2022-11-16T08:54:19.310Z,96.90
2022-11-16T08:56:48.622Z,98.00
2022-11-16T08:59:17.900Z,97.50
2022-11-16T09:01:47.248Z,97.40
2022-11-16T09:04:16.518Z,98.60
2022-11-16T09:06:46.375Z,98.10
2022-11-16T09:09:15.763Z,98.30
2022-11-16T09:11:44.947Z,98.20
2022-11-16T09:14:14.189Z,98.80
2022-11-16T09:16:43.422Z,98.70
2022-11-16T09:19:12.720Z,98.60
2022-11-16T09:21:42.106Z,98.30
2022-11-16T09:24:11.696Z,97.90
2022-11-16T09:26:40.882Z,98.10
2022-11-16T09:29:13.472Z,98.20
2022-11-16T09:31:43.339Z,98.70
2022-11-16T09:34:12.748Z,98.50
2022-11-16T09:36:42.082Z,99.10
2022-11-16T09:39:30.081Z,98.90
2022-11-16T09:42:09.719Z,99.20
2022-11-16T09:45:05.892Z,99.20
2022-11-16T09:47:44.760Z,99.50
2022-11-16T09:53:40.687Z,98.90
2022-11-16T09:56:21.676Z,98.90
2022-11-16T09:58:58.431Z,99.20
2022-11-16T10:01:31.621Z,99.90
2022-11-16T10:04:24.984Z,99.90
2022-11-16T10:07:04.867Z,99.90
2022-11-16T10:09:34.665Z,99.90
2022-11-16T10:12:32.006Z,99.90
2022-11-16T10:15:16.606Z,99.90
2022-11-16T10:18:05.922Z,99.90
2022-11-16T10:20:52.451Z,99.90
2022-11-16T10:23:30.208Z,99.90
2022-11-16T10:26:21.902Z,99.90
2022-11-16T10:29:03.513Z,99.90
2022-11-16T10:31:56.080Z,99.90
2022-11-16T10:34:30.125Z,99.90
2022-11-16T10:37:05.497Z,99.90
2022-11-16T10:39:35.786Z,99.90
2022-11-16T10:42:12.829Z,99.90
2022-11-16T10:44:46.265Z,99.90
2022-11-16T10:47:38.225Z,99.90
2022-11-16T10:50:41.198Z,99.90
2022-11-16T10:53:16.402Z,99.90
2022-11-16T10:55:45.597Z,99.90
2022-11-16T10:58:14.832Z,99.90
2022-11-16T11:00:49.395Z,99.90
2022-11-16T11:03:33.216Z,99.90
2022-11-16T11:06:03.884Z,99.90
2022-11-16T11:08:33.735Z,99.90
2022-11-16T11:11:25.679Z,99.90
2022-11-16T11:14:16.776Z,99.90
2022-11-16T11:16:46.036Z,99.90
2022-11-16T11:19:28.927Z,99.90
2022-11-16T11:21:58.775Z,99.90
2022-11-16T11:24:43.798Z,99.90
2022-11-16T11:27:14.577Z,99.90
2022-11-16T11:29:45.533Z,99.90
2022-11-16T11:32:23.779Z,99.90
2022-11-16T11:34:55.904Z,99.90
2022-11-16T11:37:29.372Z,99.90
2022-11-16T11:40:18.600Z,99.90
2022-11-16T11:43:07.789Z,99.90
2022-11-16T11:45:46.712Z,99.90
2022-11-16T11:48:39.479Z,99.90
2022-11-16T11:51:24.557Z,99.90
2022-11-16T11:54:02.872Z,99.90
2022-11-16T11:56:35.482Z,99.90
2022-11-16T11:59:06.463Z,99.90
2022-11-16T12:02:14.869Z,99.90
2022-11-16T12:05:10.416Z,99.90
2022-11-16T12:07:55.949Z,99.90
2022-11-16T12:10:45.232Z,99.90
2022-11-16T12:13:34.696Z,99.90
2022-11-16T12:16:10.677Z,99.90
2022-11-16T12:19:07.127Z,99.90
2022-11-16T12:21:52.820Z,99.90
2022-11-16T12:24:43.106Z,99.90
2022-11-16T12:27:51.465Z,99.90
2022-11-16T12:30:23.980Z,99.90
2022-11-16T12:33:14.252Z,99.90
2022-11-16T12:35:48.027Z,99.90
2022-11-16T12:38:37.323Z,99.90
2022-11-16T12:41:27.039Z,99.90
2022-11-16T12:44:03.799Z,99.90
2022-11-16T12:46:53.309Z,99.90
2022-11-16T12:50:01.742Z,99.90
2022-11-16T12:53:00.343Z,99.90
2022-11-16T12:55:39.645Z,99.90
2022-11-16T12:58:48.022Z,99.90
2022-11-16T13:01:32.913Z,99.90
2022-11-16T13:04:23.808Z,99.90
2022-11-16T13:07:14.744Z,99.90
2022-11-16T13:09:51.001Z,99.90
2022-11-16T13:12:25.082Z,99.90
2022-11-16T13:14:59.133Z,99.90
2022-11-16T13:17:34.872Z,99.90
2022-11-16T13:20:36.074Z,99.90
2022-11-16T13:23:13.120Z,99.90
2022-11-16T13:26:02.589Z,99.90
2022-11-16T13:28:33.762Z,99.90
2022-11-16T13:31:16.806Z,99.90
2022-11-16T13:33:52.204Z,99.90
2022-11-16T13:36:47.259Z,99.90
2022-11-16T13:39:22.703Z,99.90
2022-11-16T13:42:09.076Z,99.90
2022-11-16T13:44:38.638Z,99.90
2022-11-16T13:47:24.425Z,99.90
2022-11-16T13:49:59.103Z,99.90
2022-11-16T13:53:40.924Z,99.90
2022-11-16T13:55:43.254Z,99.90
2022-11-16T13:58:21.780Z,99.90
2022-11-16T14:01:16.901Z,99.90
2022-11-16T14:03:53.181Z,99.90
2022-11-16T14:06:24.564Z,99.90
2022-11-16T14:08:56.980Z,99.90
2022-11-16T14:11:36.436Z,99.90
2022-11-16T14:14:11.695Z,99.90
2022-11-16T14:16:49.633Z,99.90
2022-11-16T14:19:48.807Z,99.90
2022-11-16T14:22:19.879Z,99.90
2022-11-16T14:25:03.238Z,99.90
2022-11-16T14:27:47.567Z,99.90
2022-11-16T14:30:26.344Z,99.90
2022-11-16T14:32:57.732Z,99.90
2022-11-16T14:35:42.830Z,99.90
2022-11-16T14:38:32.304Z,99.90
2022-11-16T14:41:04.429Z,99.90
2022-11-16T14:43:41.178Z,99.90
2022-11-16T14:46:18.810Z,99.90
2022-11-16T14:48:49.232Z,99.90
2022-11-16T14:51:23.612Z,99.90
2022-11-16T14:54:00.207Z,99.90
2022-11-16T14:56:29.517Z,99.90
2022-11-16T14:59:03.859Z,99.90
2022-11-16T15:01:40.506Z,99.90
2022-11-16T15:04:12.713Z,99.90
2022-11-16T15:06:47.598Z,99.90
2022-11-16T15:09:24.126Z,99.90
2022-11-16T15:12:13.506Z,99.90
2022-11-16T15:14:56.423Z,99.90
2022-11-16T15:17:31.830Z,99.90
2022-11-16T15:20:07.302Z,99.90
2022-11-16T15:22:43.112Z,99.90
2022-11-16T15:25:44.250Z,99.90
2022-11-16T15:28:23.485Z,99.90
2022-11-16T15:31:06.833Z,99.90
2022-11-16T15:33:42.076Z,99.90
2022-11-16T15:36:33.310Z,99.90
2022-11-16T15:39:05.609Z,99.90
2022-11-16T15:41:35.783Z,99.90
2022-11-16T15:44:14.584Z,99.90
2022-11-16T15:46:48.817Z,99.90
2022-11-16T15:49:38.833Z,99.90
2022-11-16T15:52:08.180Z,99.90
2022-11-16T15:54:57.673Z,99.90
2022-11-16T15:57:27.329Z,99.90
2022-11-16T15:59:58.717Z,99.90
2022-11-16T16:02:30.315Z,99.90
2022-11-16T16:04:59.773Z,99.90
2022-11-16T16:07:45.617Z,99.90
2022-11-16T16:10:24.319Z,99.90
2022-11-16T16:12:58.212Z,99.90
2022-11-16T16:15:31.718Z,99.90
2022-11-16T16:18:02.313Z,99.90
2022-11-16T16:20:33.722Z,99.90
2022-11-16T16:23:13.404Z,99.90
2022-11-16T16:25:47.434Z,99.90
2022-11-16T16:28:19.403Z,99.90
2022-11-16T16:30:52.312Z,99.90
2022-11-16T16:33:23.392Z,99.90
2022-11-16T16:35:52.724Z,99.90
2022-11-16T16:38:21.949Z,99.90
2022-11-16T16:40:51.121Z,99.90
2022-11-16T16:43:20.399Z,99.90
2022-11-16T16:45:49.687Z,99.90
2022-11-16T16:48:19.982Z,99.90
2022-11-16T16:50:49.261Z,99.90
2022-11-16T16:53:18.513Z,99.90
2022-11-16T16:55:50.315Z,99.90
2022-11-16T16:58:19.696Z,99.90
2022-11-16T17:01:22.826Z,99.90
2022-11-16T17:03:52.101Z,99.90
2022-11-16T17:06:21.470Z,99.90
2022-11-16T17:08:50.662Z,99.90
2022-11-16T17:11:19.967Z,99.90
2022-11-16T17:13:49.229Z,99.90
2022-11-16T17:16:18.541Z,99.90
2022-11-16T17:18:47.757Z,99.90
2022-11-16T17:21:17.099Z,99.90
2022-11-16T17:23:46.293Z,99.90
2022-11-16T17:26:15.551Z,99.90
2022-11-16T17:28:44.799Z,99.90
2022-11-16T17:31:15.157Z,99.90
2022-11-16T17:33:45.314Z,99.90
2022-11-16T17:36:15.708Z,99.90
2022-11-16T17:38:45.339Z,99.90
2022-11-16T17:41:16.686Z,99.90
2022-11-16T17:43:47.720Z,99.90
2022-11-16T17:46:19.103Z,99.90
2022-11-16T17:48:49.976Z,99.90
2022-11-16T17:51:21.470Z,99.90
2022-11-16T17:53:51.466Z,99.90
2022-11-16T17:56:23.209Z,99.90
2022-11-16T17:58:53.547Z,99.90
2022-11-16T18:01:24.262Z,99.90
2022-11-16T18:03:53.627Z,99.90
2022-11-16T18:06:24.746Z,99.90
2022-11-16T18:08:55.825Z,99.90
2022-11-16T18:11:27.209Z,99.90
2022-11-16T18:13:59.904Z,99.90
2022-11-16T18:16:32.133Z,99.90
2022-11-16T18:19:05.060Z,99.90
2022-11-16T18:21:40.637Z,99.90
2022-11-16T18:24:10.743Z,99.90
2022-11-16T18:26:41.836Z,99.90
2022-11-16T18:29:14.135Z,99.90
2022-11-16T18:31:43.661Z,99.90
2022-11-16T18:34:15.892Z,99.90
2022-11-16T18:36:45.482Z,99.90
2022-11-16T18:39:14.777Z,99.90
2022-11-16T18:41:53.376Z,99.90
2022-11-16T18:44:24.524Z,99.90
2022-11-16T18:46:53.747Z,99.90
2022-11-16T18:49:22.981Z,99.90
2022-11-16T18:51:52.210Z,99.90
2022-11-16T18:54:21.571Z,99.90
2022-11-16T18:56:50.769Z,99.90
2022-11-16T18:59:20.157Z,99.90
2022-11-16T19:01:49.397Z,99.90
2022-11-16T19:04:18.601Z,99.90
2022-11-16T19:06:48.082Z,99.90
2022-11-16T19:09:17.355Z,99.90
2022-11-16T19:11:46.694Z,99.90
2022-11-16T19:14:15.905Z,99.90
2022-11-16T19:16:53.980Z,99.90
2022-11-16T19:19:25.689Z,99.90
2022-11-16T19:21:55.165Z,99.90
2022-11-16T19:24:24.754Z,99.90
2022-11-16T19:26:54.225Z,99.90
2022-11-16T19:29:23.483Z,99.90
2022-11-16T19:31:52.689Z,99.90
2022-11-16T19:34:21.882Z,99.90
2022-11-16T19:36:51.107Z,99.90
2022-11-16T19:39:20.381Z,99.90
2022-11-16T19:41:49.760Z,99.90
2022-11-16T19:44:18.983Z,99.90
2022-11-16T19:46:48.210Z,99.90
2022-11-16T19:49:20.477Z,99.90
2022-11-16T19:51:51.145Z,99.90
2022-11-16T19:54:20.498Z,99.90
2022-11-16T19:56:54.880Z,99.90
2022-11-16T19:59:24.680Z,99.90
2022-11-16T20:01:53.969Z,99.90
2022-11-16T20:04:23.319Z,99.90
2022-11-16T20:06:53.101Z,99.90
2022-11-16T20:09:22.340Z,99.90
2022-11-16T20:11:51.584Z,99.90
2022-11-16T20:14:20.812Z,99.90
2022-11-16T20:16:51.790Z,99.90
2022-11-16T20:19:25.134Z,99.90
2022-11-16T20:21:54.919Z,99.90
2022-11-16T20:24:24.264Z,99.90
2022-11-16T20:26:53.529Z,99.90
2022-11-16T20:29:22.835Z,99.90
2022-11-16T20:31:52.067Z,99.90
2022-11-16T20:34:23.459Z,99.90
2022-11-16T20:36:52.747Z,99.90
2022-11-16T20:39:23.086Z,99.90
2022-11-16T20:41:52.371Z,99.90
2022-11-16T20:44:23.501Z,99.90
2022-11-16T20:46:54.274Z,99.90
2022-11-16T20:49:23.549Z,99.90
2022-11-16T20:51:53.011Z,99.90
2022-11-16T20:54:22.215Z,99.90
2022-11-16T20:56:51.931Z,99.90
2022-11-16T20:59:21.268Z,99.90
2022-11-16T21:01:53.778Z,99.90
2022-11-16T21:04:23.421Z,99.90
2022-11-16T21:06:52.666Z,99.90
2022-11-16T21:09:24.684Z,99.90
2022-11-16T21:12:13.736Z,99.90
2022-11-16T21:14:42.984Z,99.90
2022-11-16T21:17:12.174Z,99.90
2022-11-16T21:19:54.285Z,99.90
2022-11-16T21:22:32.411Z,99.90
2022-11-16T21:25:02.238Z,99.90
2022-11-16T21:27:31.476Z,99.90
2022-11-16T21:30:00.722Z,99.90
2022-11-16T21:32:29.934Z,99.90
2022-11-16T21:34:59.096Z,99.90
2022-11-16T21:37:28.346Z,99.90
2022-11-16T21:39:57.565Z,99.90
2022-11-16T21:42:26.768Z,99.90
2022-11-16T21:44:55.989Z,99.90
2022-11-16T21:47:25.294Z,99.90
2022-11-16T21:50:24.901Z,99.90
2022-11-16T21:52:43.722Z,99.90
2022-11-16T21:55:13.299Z,99.90
2022-11-16T21:57:42.494Z,99.90
2022-11-16T22:00:15.457Z,99.90
2022-11-16T22:02:44.688Z,99.90
2022-11-16T22:05:33.779Z,99.90
2022-11-16T22:08:08.123Z,99.90
2022-11-16T22:10:37.641Z,99.90
2022-11-16T22:13:07.173Z,99.90
2022-11-16T22:15:36.396Z,99.90
2022-11-16T22:18:05.843Z,99.90
2022-11-16T22:20:35.754Z,99.90
2022-11-16T22:23:05.163Z,99.90
2022-11-16T22:25:34.399Z,99.90
2022-11-16T22:28:20.246Z,99.90
2022-11-16T22:30:52.011Z,99.90
2022-11-16T22:33:21.871Z,99.90
2022-11-16T22:35:51.104Z,99.90
2022-11-16T22:38:20.282Z,99.90
2022-11-16T22:40:52.561Z,99.90
2022-11-16T22:43:23.416Z,99.90
2022-11-16T22:45:52.838Z,99.90
2022-11-16T22:48:22.107Z,99.90
2022-11-16T22:50:51.320Z,99.90
2022-11-16T22:53:20.546Z,99.90
2022-11-16T22:55:49.900Z,99.90
2022-11-16T22:58:19.138Z,99.90
2022-11-16T23:00:48.338Z,99.90
2022-11-16T23:03:18.334Z,99.90
2022-11-16T23:05:47.610Z,99.90
2022-11-16T23:08:16.781Z,99.90
2022-11-16T23:11:05.642Z,99.90
2022-11-16T23:13:54.420Z,99.90
2022-11-16T23:16:23.681Z,99.90
2022-11-16T23:18:52.929Z,99.90
2022-11-16T23:21:42.004Z,99.90
2022-11-16T23:24:33.096Z,99.90
2022-11-16T23:27:25.156Z,99.90
2022-11-16T23:29:54.897Z,99.90
2022-11-16T23:32:24.112Z,99.90
2022-11-16T23:34:53.339Z,99.90
2022-11-16T23:37:22.772Z,99.90
2022-11-16T23:39:52.075Z,99.90
2022-11-16T23:42:40.935Z,99.90
2022-11-16T23:45:10.615Z,99.90
2022-11-16T23:47:39.824Z,99.90
2022-11-16T23:50:09.301Z,99.90
2022-11-16T23:52:38.528Z,99.90
2022-11-16T23:55:08.265Z,99.90
2022-11-16T23:57:37.511Z,99.90
